Portada
METAR-TAF:

METAR-TAF

Aeroports :

Murray, Kentucky, Estats Units d'Amèrica

latitud: 36-39-52N, longitud: 088-22-22W, altitud: 176 m

Observació

L'informe es va fer fa 34 minuts, a les 20:55 UTC
Vent 9 kt del Sud amb ràfegues de 16 kt
Temperatura 12°C
Humitat 100%
Pressió 1017 hPa
Visibilitat: 16.1 km
Escasses núvols a una alçada de 900 ft
Cel ennuvolat a una alçada de 2300 ft
Cel cobert a una alçada de 2800 ft

METAR: KCEY 212055Z AUTO 18009G16KT 10SM FEW009 BKN023 OVC028 12/12 A3004 RMK AO1

Hora: 15:29 (21:29 UTC)


TAF: manca

Observacions i pronòstics meteorològics de més de 4000 aeroports (METAR i TAF).

Les estacions disponibles són els punts grocs i vermells al mapa.

Posi el ratolí al punt desitjat per veure el nom de l'estació.

Feu clic per veure les observacions i els pronòstics meteorològics.

Per canviar el mapa: feu clic els botons verds amb una creu de color negre per apropar; al botó verd amb un guió per allunyar la imatge; o en les fletxes verdes per a mapes adjacents.


METAR-TAF: